createdAt,value
2017-09-18T00:00:18.233Z,10.47
2017-09-18T00:02:45.950Z,10.44
2017-09-18T00:05:13.638Z,10.41
2017-09-18T00:07:41.360Z,10.38
2017-09-18T00:10:09.082Z,10.37
2017-09-18T00:12:36.855Z,10.35
2017-09-18T00:15:04.563Z,10.34
2017-09-18T00:17:32.290Z,10.31
2017-09-18T00:19:59.968Z,10.25
2017-09-18T00:22:27.707Z,10.22
2017-09-18T00:24:55.408Z,10.21
2017-09-18T00:27:23.139Z,10.19
2017-09-18T00:29:50.813Z,10.14
2017-09-18T00:32:18.571Z,10.05
2017-09-18T00:34:46.271Z,9.97
2017-09-18T00:37:14.033Z,9.94
2017-09-18T00:39:41.703Z,9.90
2017-09-18T00:42:09.433Z,9.82
2017-09-18T00:44:37.113Z,9.75
2017-09-18T00:47:04.874Z,9.71
2017-09-18T00:49:32.577Z,9.68
2017-09-18T00:52:00.330Z,9.68
2017-09-18T00:54:28.039Z,9.66
2017-09-18T00:56:55.793Z,9.66
2017-09-18T00:59:23.485Z,9.66
2017-09-18T01:01:51.261Z,9.66
2017-09-18T01:04:18.949Z,9.69
2017-09-18T01:06:46.682Z,9.71
2017-09-18T01:09:14.370Z,9.73
2017-09-18T01:11:42.109Z,9.74
2017-09-18T01:14:09.946Z,9.78
2017-09-18T01:16:37.669Z,9.80
2017-09-18T01:19:05.359Z,9.81
2017-09-18T01:21:33.147Z,9.83
2017-09-18T01:24:01.004Z,9.85
2017-09-18T01:26:28.726Z,9.88
2017-09-18T01:28:56.399Z,9.89
2017-09-18T01:31:24.122Z,9.89
2017-09-18T01:33:51.823Z,9.89
2017-09-18T01:36:19.578Z,9.89
2017-09-18T01:38:47.345Z,9.86
2017-09-18T01:41:15.012Z,9.85
2017-09-18T01:43:42.730Z,9.83
2017-09-18T01:46:10.428Z,9.81
2017-09-18T01:48:38.153Z,9.81
2017-09-18T01:51:05.833Z,9.81
2017-09-18T01:53:33.550Z,9.79
2017-09-18T01:56:01.257Z,9.77
2017-09-18T01:58:29.030Z,9.75
2017-09-18T02:00:56.614Z,9.73
2017-09-18T02:03:24.361Z,9.71
2017-09-18T02:05:52.076Z,9.70
2017-09-18T02:08:19.828Z,9.72
2017-09-18T02:10:47.521Z,9.70
2017-09-18T02:13:15.266Z,9.67
2017-09-18T02:15:42.964Z,9.64
2017-09-18T02:18:10.686Z,9.59
2017-09-18T02:20:38.384Z,9.58
2017-09-18T02:23:06.121Z,9.58
2017-09-18T02:25:33.826Z,9.52
2017-09-18T02:28:01.558Z,9.46
2017-09-18T02:30:29.259Z,9.43
2017-09-18T02:32:57.001Z,9.43
2017-09-18T02:35:24.699Z,9.40
2017-09-18T02:37:52.473Z,9.36
2017-09-18T02:40:20.171Z,9.33
2017-09-18T02:42:47.929Z,9.31
2017-09-18T02:45:15.631Z,9.31
2017-09-18T02:47:43.387Z,9.30
2017-09-18T02:50:11.068Z,9.31
2017-09-18T02:52:38.805Z,9.30
2017-09-18T02:55:06.488Z,9.29
2017-09-18T02:57:34.207Z,9.29
2017-09-18T03:00:01.893Z,9.27
2017-09-18T03:02:29.612Z,9.22
2017-09-18T03:04:57.290Z,9.14
2017-09-18T03:07:25.026Z,9.05
2017-09-18T03:09:52.704Z,8.97
2017-09-18T03:12:20.503Z,8.88
2017-09-18T03:14:48.200Z,8.81
2017-09-18T03:17:15.908Z,8.76
2017-09-18T03:19:43.634Z,8.70
2017-09-18T03:22:11.306Z,8.62
2017-09-18T03:24:39.029Z,8.55
2017-09-18T03:27:06.731Z,8.47
2017-09-18T03:29:34.474Z,8.38
2017-09-18T03:32:02.185Z,8.35
2017-09-18T03:34:29.915Z,8.30
2017-09-18T03:36:57.641Z,8.20
2017-09-18T03:39:25.414Z,8.03
2017-09-18T03:41:53.138Z,7.90
2017-09-18T03:44:20.935Z,7.86
2017-09-18T03:46:48.688Z,7.77
2017-09-18T03:49:16.468Z,7.73
2017-09-18T03:51:44.184Z,7.73
2017-09-18T03:54:11.972Z,7.73
2017-09-18T03:56:39.676Z,7.72
2017-09-18T03:59:07.441Z,7.67
2017-09-18T04:01:35.136Z,7.60
2017-09-18T04:04:03.038Z,7.55
2017-09-18T04:06:30.728Z,7.53
2017-09-18T04:08:58.450Z,7.51
2017-09-18T04:11:26.151Z,7.52
2017-09-18T04:13:53.870Z,7.53
2017-09-18T04:16:21.550Z,7.48
2017-09-18T04:18:49.277Z,7.42
2017-09-18T04:21:16.995Z,7.39
2017-09-18T04:23:44.753Z,7.39
2017-09-18T04:26:12.470Z,7.38
2017-09-18T04:28:40.386Z,7.36
2017-09-18T04:31:08.091Z,7.32
2017-09-18T04:33:35.867Z,7.25
2017-09-18T04:36:03.588Z,7.14
2017-09-18T04:38:31.396Z,7.10
2017-09-18T04:40:59.093Z,7.05
2017-09-18T04:43:26.868Z,7.00
2017-09-18T04:45:54.567Z,6.97
2017-09-18T04:48:22.335Z,6.92
2017-09-18T04:50:50.062Z,6.89
2017-09-18T04:53:17.792Z,6.82
2017-09-18T04:55:45.527Z,6.76
2017-09-18T04:58:13.239Z,6.71
2017-09-18T05:00:40.956Z,6.71
2017-09-18T05:03:08.668Z,6.71
2017-09-18T05:05:36.418Z,6.66
2017-09-18T05:08:04.105Z,6.68
2017-09-18T05:10:31.866Z,6.68
2017-09-18T05:12:59.572Z,6.71
2017-09-18T05:15:27.325Z,6.73
2017-09-18T05:17:55.028Z,6.80
2017-09-18T05:20:22.763Z,6.85
2017-09-18T05:22:50.451Z,6.87
2017-09-18T05:25:18.189Z,6.93
2017-09-18T05:27:45.873Z,6.95
2017-09-18T05:30:13.660Z,6.95
2017-09-18T05:32:41.356Z,6.94
2017-09-18T05:35:09.117Z,6.95
2017-09-18T05:37:36.841Z,6.98
2017-09-18T05:40:04.578Z,7.05
2017-09-18T05:42:32.259Z,7.16
2017-09-18T05:44:59.985Z,7.21
2017-09-18T05:47:27.676Z,7.17
2017-09-18T05:49:55.413Z,7.14
2017-09-18T05:52:23.104Z,7.27
2017-09-18T05:54:50.845Z,7.50
2017-09-18T05:57:18.547Z,7.61
2017-09-18T05:59:46.301Z,7.74
2017-09-18T06:02:13.975Z,7.88
2017-09-18T06:04:41.712Z,8.05
2017-09-18T06:07:09.422Z,8.20
2017-09-18T06:09:37.152Z,8.35
2017-09-18T06:12:04.862Z,8.44
2017-09-18T06:14:32.600Z,8.31
2017-09-18T06:17:00.298Z,8.19
2017-09-18T06:19:28.060Z,8.23
2017-09-18T06:21:55.767Z,8.36
2017-09-18T06:24:23.521Z,8.49
2017-09-18T06:26:51.216Z,8.55
2017-09-18T06:29:18.980Z,8.52
2017-09-18T06:31:46.589Z,8.55
2017-09-18T06:34:14.310Z,8.64
2017-09-18T06:36:42.090Z,8.65
2017-09-18T06:39:09.804Z,8.74
2017-09-18T06:41:37.549Z,8.95
2017-09-18T06:44:05.244Z,9.11
2017-09-18T06:46:33.024Z,9.27
2017-09-18T06:49:00.751Z,9.37
2017-09-18T06:51:28.537Z,9.44
2017-09-18T06:53:56.149Z,9.54
2017-09-18T06:56:24.028Z,9.68
2017-09-18T06:58:51.748Z,9.82
2017-09-18T07:01:19.516Z,9.87
2017-09-18T07:03:47.256Z,9.84
2017-09-18T07:06:15.079Z,9.95
2017-09-18T07:08:42.815Z,10.13
2017-09-18T07:11:10.603Z,10.32
2017-09-18T07:13:38.314Z,10.39
2017-09-18T07:16:06.055Z,10.46
2017-09-18T07:18:33.773Z,10.57
2017-09-18T07:21:01.559Z,10.66
2017-09-18T07:23:29.255Z,10.72
2017-09-18T07:25:57.019Z,10.73
2017-09-18T07:28:24.713Z,10.75
2017-09-18T07:30:52.469Z,10.80
2017-09-18T07:33:20.167Z,10.76
2017-09-18T07:35:47.933Z,10.77
2017-09-18T07:38:15.695Z,10.89
2017-09-18T07:40:43.476Z,11.07
2017-09-18T07:43:11.222Z,11.31
2017-09-18T07:45:38.999Z,11.48
2017-09-18T07:48:06.741Z,11.69
2017-09-18T07:50:34.492Z,11.89
2017-09-18T07:53:02.218Z,12.19
2017-09-18T07:55:29.965Z,12.45
2017-09-18T07:57:57.710Z,12.52
2017-09-18T08:00:25.516Z,12.50
2017-09-18T08:02:53.140Z,12.44
2017-09-18T08:05:20.894Z,12.58
2017-09-18T08:07:48.600Z,12.77
2017-09-18T08:10:16.373Z,12.96
2017-09-18T08:12:44.054Z,13.16
2017-09-18T08:15:11.897Z,13.17
2017-09-18T08:17:39.679Z,13.26
2017-09-18T08:20:07.386Z,13.32
2017-09-18T08:22:35.154Z,13.32
2017-09-18T08:25:02.868Z,13.30
2017-09-18T08:27:30.663Z,13.42
2017-09-18T08:29:58.389Z,13.52
2017-09-18T08:32:26.157Z,13.63
2017-09-18T08:34:53.847Z,13.61
2017-09-18T08:37:21.547Z,13.73
2017-09-18T08:39:49.243Z,13.92
2017-09-18T08:42:16.990Z,14.04
2017-09-18T08:44:44.691Z,14.12
2017-09-18T08:47:12.476Z,14.17
2017-09-18T08:49:40.167Z,14.14
2017-09-18T08:52:07.935Z,14.22
2017-09-18T08:54:35.666Z,14.15
2017-09-18T08:57:03.413Z,14.11
2017-09-18T08:59:31.122Z,14.21
2017-09-18T09:01:58.927Z,14.35
2017-09-18T09:04:26.641Z,14.43
2017-09-18T09:06:54.385Z,14.45
2017-09-18T09:09:22.118Z,14.51
2017-09-18T09:11:49.903Z,14.62
2017-09-18T09:14:17.637Z,14.60
2017-09-18T09:16:45.404Z,14.62
2017-09-18T09:19:13.135Z,14.79
2017-09-18T09:21:40.872Z,14.88
2017-09-18T09:24:08.585Z,14.96
2017-09-18T09:26:36.336Z,15.12
2017-09-18T09:29:04.058Z,15.20
2017-09-18T09:31:31.819Z,15.20
2017-09-18T09:33:59.568Z,15.23
2017-09-18T09:36:27.433Z,15.32
2017-09-18T09:38:55.628Z,15.43
2017-09-18T09:41:23.381Z,15.49
2017-09-18T09:43:51.098Z,15.35
2017-09-18T09:46:18.843Z,15.35
2017-09-18T09:48:46.540Z,15.41
2017-09-18T09:51:14.295Z,15.51
2017-09-18T09:53:42.024Z,15.63
2017-09-18T09:56:09.779Z,15.69
2017-09-18T09:58:37.486Z,15.76
2017-09-18T10:01:05.181Z,15.78
2017-09-18T10:03:32.942Z,15.73
2017-09-18T10:06:00.629Z,15.74
2017-09-18T10:08:28.422Z,15.86
2017-09-18T10:10:56.110Z,15.90
2017-09-18T10:13:23.839Z,15.92
2017-09-18T10:15:51.565Z,15.87
2017-09-18T10:18:19.358Z,15.82
2017-09-18T10:20:47.070Z,15.84
2017-09-18T10:23:14.815Z,15.94
2017-09-18T10:25:42.498Z,15.96
2017-09-18T10:28:10.286Z,16.11
2017-09-18T10:30:38.004Z,16.25
2017-09-18T10:33:05.766Z,16.32
2017-09-18T10:35:33.483Z,16.46
2017-09-18T10:38:01.296Z,16.51
2017-09-18T10:40:29.016Z,16.63
2017-09-18T10:42:56.791Z,16.72
2017-09-18T10:45:24.496Z,16.69
2017-09-18T10:47:52.233Z,16.78
2017-09-18T10:50:19.966Z,16.86
2017-09-18T10:52:47.722Z,16.97
2017-09-18T10:55:15.458Z,16.99
2017-09-18T10:57:43.194Z,16.99
2017-09-18T11:00:10.902Z,17.00
2017-09-18T11:02:38.660Z,16.98
2017-09-18T11:05:06.385Z,17.03
2017-09-18T11:07:34.158Z,17.02
2017-09-18T11:10:01.880Z,16.98
2017-09-18T11:12:29.653Z,17.04
2017-09-18T11:14:57.361Z,17.10
2017-09-18T11:17:25.129Z,17.17
2017-09-18T11:19:52.847Z,17.24
2017-09-18T11:22:20.592Z,17.22
2017-09-18T11:24:48.331Z,17.29
2017-09-18T11:27:16.467Z,17.44
2017-09-18T11:29:44.175Z,17.60
2017-09-18T11:32:11.959Z,17.64
2017-09-18T11:34:39.647Z,17.65
2017-09-18T11:37:07.400Z,17.71
2017-09-18T11:39:35.172Z,17.70
2017-09-18T11:42:02.914Z,17.82
2017-09-18T11:44:30.654Z,18.06
2017-09-18T11:46:58.414Z,18.13
2017-09-18T11:49:26.174Z,18.08
2017-09-18T11:51:53.904Z,17.63
2017-09-18T11:54:21.689Z,17.59
2017-09-18T11:56:49.405Z,17.53
2017-09-18T11:59:17.158Z,17.53
2017-09-18T12:01:44.917Z,17.42
2017-09-18T12:04:12.685Z,17.15
2017-09-18T12:06:40.368Z,17.11
2017-09-18T12:09:08.148Z,17.03
2017-09-18T12:11:35.876Z,17.08
2017-09-18T12:14:03.845Z,17.28
2017-09-18T12:16:31.564Z,17.33
2017-09-18T12:18:59.318Z,17.21
2017-09-18T12:21:26.938Z,17.01
2017-09-18T12:23:54.628Z,17.17
2017-09-18T12:26:22.329Z,17.52
2017-09-18T12:28:50.083Z,17.84
2017-09-18T12:31:17.812Z,18.08
2017-09-18T12:33:45.583Z,17.86
2017-09-18T12:36:13.219Z,17.81
2017-09-18T12:38:41.008Z,17.76
2017-09-18T12:41:08.715Z,17.87
2017-09-18T12:43:36.360Z,17.62
2017-09-18T12:46:04.078Z,17.61
2017-09-18T12:48:31.834Z,17.79
2017-09-18T12:50:59.525Z,17.79
2017-09-18T12:53:27.273Z,18.16
2017-09-18T12:55:54.986Z,18.36
2017-09-18T12:58:22.750Z,18.28
2017-09-18T13:00:50.472Z,17.98
2017-09-18T13:03:18.231Z,17.82
2017-09-18T13:05:45.959Z,17.46
2017-09-18T13:08:13.730Z,17.18
2017-09-18T13:10:41.408Z,16.96
2017-09-18T13:13:09.195Z,16.85
2017-09-18T13:15:36.890Z,16.76
2017-09-18T13:18:04.676Z,16.96
2017-09-18T13:20:32.413Z,17.36
2017-09-18T13:23:00.027Z,17.58
2017-09-18T13:25:27.767Z,17.62
2017-09-18T13:27:55.479Z,17.75
2017-09-18T13:30:23.243Z,17.90
2017-09-18T13:32:50.857Z,17.96
2017-09-18T13:35:18.621Z,18.14
2017-09-18T13:37:46.383Z,18.30
2017-09-18T13:40:14.143Z,18.43
2017-09-18T13:42:41.861Z,18.38
2017-09-18T13:45:09.643Z,18.44
2017-09-18T13:47:37.356Z,18.55
2017-09-18T13:50:05.103Z,18.63
2017-09-18T13:52:32.822Z,18.23
2017-09-18T13:55:00.591Z,17.76
2017-09-18T13:57:28.278Z,17.28
2017-09-18T13:59:56.040Z,16.92
2017-09-18T14:02:23.724Z,16.63
2017-09-18T14:04:51.487Z,16.41
2017-09-18T14:07:19.196Z,16.27
2017-09-18T14:09:46.871Z,16.25
2017-09-18T14:12:14.586Z,16.30
2017-09-18T14:14:42.376Z,16.39
2017-09-18T14:17:10.112Z,16.52
2017-09-18T14:19:37.866Z,16.62
2017-09-18T14:22:05.488Z,16.64
2017-09-18T14:24:33.248Z,16.66
2017-09-18T14:27:00.948Z,16.78
2017-09-18T14:29:28.600Z,16.84
2017-09-18T14:31:56.302Z,16.85
2017-09-18T14:34:24.051Z,16.90
2017-09-18T14:36:51.858Z,17.20
2017-09-18T14:39:19.666Z,17.54
2017-09-18T14:41:47.399Z,17.85
2017-09-18T14:44:15.148Z,17.98
2017-09-18T14:46:42.876Z,18.01
2017-09-18T14:49:10.641Z,18.02
2017-09-18T14:51:38.380Z,17.89
2017-09-18T14:54:06.133Z,17.84
2017-09-18T14:56:33.848Z,17.86
2017-09-18T14:59:01.606Z,17.79
2017-09-18T15:01:29.361Z,17.53
2017-09-18T15:03:57.107Z,17.20
2017-09-18T15:06:24.874Z,17.08
2017-09-18T15:08:52.476Z,16.93
2017-09-18T15:11:20.245Z,16.72
2017-09-18T15:13:47.993Z,16.66
2017-09-18T15:16:15.792Z,16.75
2017-09-18T15:18:43.524Z,16.77
2017-09-18T15:21:11.279Z,16.66
2017-09-18T15:23:39.001Z,16.55
2017-09-18T15:26:06.785Z,16.42
2017-09-18T15:28:34.532Z,16.28
2017-09-18T15:31:02.304Z,16.18
2017-09-18T15:33:29.993Z,16.08
2017-09-18T15:35:57.745Z,16.02
2017-09-18T15:38:25.506Z,15.92
2017-09-18T15:40:53.276Z,15.78
2017-09-18T15:43:20.999Z,15.62
2017-09-18T15:45:48.747Z,15.44
2017-09-18T15:48:16.468Z,15.28
2017-09-18T15:50:44.229Z,15.12
2017-09-18T15:53:11.940Z,15.01
2017-09-18T15:55:39.687Z,14.97
2017-09-18T15:58:07.384Z,14.95
2017-09-18T16:00:35.163Z,14.97
2017-09-18T16:03:02.889Z,14.98
2017-09-18T16:05:30.635Z,15.00
2017-09-18T16:07:58.384Z,15.03
2017-09-18T16:10:26.191Z,15.08
2017-09-18T16:12:53.876Z,15.17
2017-09-18T16:15:21.617Z,15.28
2017-09-18T16:17:49.313Z,15.41
2017-09-18T16:20:17.080Z,15.49
2017-09-18T16:22:44.825Z,15.50
2017-09-18T16:25:12.589Z,15.47
2017-09-18T16:27:40.298Z,15.39
2017-09-18T16:30:08.055Z,15.27
2017-09-18T16:32:35.791Z,15.13
2017-09-18T16:35:03.529Z,14.98
2017-09-18T16:37:31.276Z,14.84
2017-09-18T16:39:59.008Z,14.65
2017-09-18T16:42:26.772Z,14.50
2017-09-18T16:44:54.491Z,14.35
2017-09-18T16:47:22.273Z,14.22
2017-09-18T16:49:49.968Z,14.11
2017-09-18T16:52:17.707Z,14.02
2017-09-18T16:54:45.408Z,13.95
2017-09-18T16:57:13.170Z,13.88
2017-09-18T16:59:40.900Z,13.81
2017-09-18T17:02:08.678Z,13.74
2017-09-18T17:04:36.381Z,13.66
2017-09-18T17:07:04.132Z,13.59
2017-09-18T17:09:31.896Z,13.53
2017-09-18T17:12:00.597Z,13.49
2017-09-18T17:14:28.317Z,13.45
2017-09-18T17:16:56.101Z,13.41
2017-09-18T17:19:23.823Z,13.39
2017-09-18T17:21:51.603Z,13.34
2017-09-18T17:24:19.333Z,13.29
2017-09-18T17:26:47.140Z,13.24
2017-09-18T17:29:14.837Z,13.19
2017-09-18T17:31:42.602Z,13.12
2017-09-18T17:34:10.334Z,13.05
2017-09-18T17:36:38.121Z,12.98
2017-09-18T17:39:05.859Z,12.89
2017-09-18T17:41:33.621Z,12.79
2017-09-18T17:44:01.338Z,12.71
2017-09-18T17:46:29.218Z,12.65
2017-09-18T17:48:56.986Z,12.60
2017-09-18T17:51:24.750Z,12.54
2017-09-18T17:53:52.416Z,12.43
2017-09-18T17:56:20.171Z,12.35
2017-09-18T17:58:47.898Z,12.25
2017-09-18T18:01:15.662Z,12.12
2017-09-18T18:03:43.363Z,12.04
2017-09-18T18:06:15.791Z,11.95
2017-09-18T18:08:43.524Z,11.83
2017-09-18T18:11:17.857Z,11.74
2017-09-18T18:13:48.772Z,11.65
2017-09-18T18:16:19.480Z,11.56
2017-09-18T18:18:50.240Z,11.43
2017-09-18T18:21:20.662Z,11.28
2017-09-18T18:23:51.787Z,11.09
2017-09-18T18:26:22.776Z,11.00
2017-09-18T18:28:53.494Z,10.93
2017-09-18T18:31:24.433Z,10.88
2017-09-18T18:33:55.280Z,10.86
2017-09-18T18:36:26.028Z,10.80
2017-09-18T18:38:56.787Z,10.67
2017-09-18T18:41:27.598Z,10.52
2017-09-18T18:43:58.379Z,10.44
2017-09-18T18:46:29.903Z,10.40
2017-09-18T18:49:00.357Z,10.35
2017-09-18T18:51:31.147Z,10.27
2017-09-18T18:54:02.120Z,10.24
2017-09-18T18:56:33.276Z,10.23
2017-09-18T18:59:04.260Z,10.22
2017-09-18T19:01:35.258Z,10.21
2017-09-18T19:04:06.582Z,10.17
2017-09-18T19:06:37.550Z,10.17
2017-09-18T19:09:08.489Z,10.12
2017-09-18T19:11:39.287Z,10.06
2017-09-18T19:14:10.129Z,9.99
2017-09-18T19:16:40.709Z,9.91
2017-09-18T19:19:11.949Z,9.90
2017-09-18T19:21:46.096Z,9.83
2017-09-18T19:24:16.821Z,9.78
2017-09-18T19:26:47.954Z,9.73
2017-09-18T19:29:18.607Z,9.66
2017-09-18T19:31:49.722Z,9.65
2017-09-18T19:34:20.824Z,9.57
2017-09-18T19:36:51.397Z,9.56
2017-09-18T19:39:21.870Z,9.59
2017-09-18T19:41:52.809Z,9.54
2017-09-18T19:44:24.121Z,9.54
2017-09-18T19:46:59.457Z,9.62
2017-09-18T19:49:30.612Z,9.71
2017-09-18T19:52:01.765Z,9.80
2017-09-18T19:54:32.910Z,9.90
2017-09-18T19:57:04.027Z,9.89
2017-09-18T19:59:34.790Z,9.87
2017-09-18T20:02:06.005Z,9.87
2017-09-18T20:04:37.243Z,9.86
2017-09-18T20:07:08.740Z,9.86
2017-09-18T20:09:39.667Z,9.88
2017-09-18T20:12:11.134Z,9.92
2017-09-18T20:14:41.997Z,9.96
2017-09-18T20:17:12.472Z,9.97
2017-09-18T20:19:43.495Z,9.98
2017-09-18T20:39:32.882Z,9.64
2017-09-18T20:42:02.854Z,9.57
2017-09-18T20:47:24.059Z,9.45
2017-09-18T20:49:51.708Z,9.39
2017-09-18T20:52:19.326Z,9.31
2017-09-18T20:54:47.078Z,9.28
2017-09-18T20:57:14.781Z,9.28
2017-09-18T20:59:42.533Z,9.32
2017-09-18T21:02:10.222Z,9.35
2017-09-18T21:04:37.968Z,9.33
2017-09-18T21:07:05.687Z,9.33
2017-09-18T21:09:33.436Z,9.33
2017-09-18T21:12:01.138Z,9.31
2017-09-18T21:14:28.787Z,9.29
2017-09-18T21:16:56.492Z,9.25
2017-09-18T21:19:24.222Z,9.19
2017-09-18T21:21:51.904Z,9.20
2017-09-18T21:24:19.556Z,9.25
2017-09-18T21:26:47.196Z,9.28
2017-09-18T21:29:14.932Z,9.32
2017-09-18T21:31:42.649Z,9.32
2017-09-18T21:34:10.432Z,9.28
2017-09-18T21:36:38.730Z,9.24
2017-09-18T21:39:06.533Z,9.16
2017-09-18T21:41:34.162Z,9.10
2017-09-18T21:44:01.905Z,9.04
2017-09-18T21:46:29.616Z,8.94
2017-09-18T21:48:57.347Z,8.88
2017-09-18T21:51:24.967Z,8.84
2017-09-18T21:53:52.733Z,8.81
2017-09-18T21:56:20.422Z,8.78
2017-09-18T21:58:48.161Z,8.74
2017-09-18T22:01:15.856Z,8.73
2017-09-18T22:03:43.580Z,8.74
2017-09-18T22:06:11.198Z,8.68
2017-09-18T22:08:38.849Z,8.62
2017-09-18T22:11:06.550Z,8.57
2017-09-18T22:13:34.282Z,8.50
2017-09-18T22:16:01.947Z,8.45
2017-09-18T22:18:29.687Z,8.38
2017-09-18T22:20:57.376Z,8.34
2017-09-18T22:23:25.089Z,8.25
2017-09-18T22:25:52.765Z,8.24
2017-09-18T22:28:20.561Z,8.22
2017-09-18T22:30:48.287Z,8.27
2017-09-18T22:33:15.968Z,8.33
2017-09-18T22:35:43.689Z,8.37
2017-09-18T22:38:11.452Z,8.36
2017-09-18T22:40:39.197Z,8.31
2017-09-18T22:43:06.891Z,8.28
2017-09-18T22:45:34.672Z,8.25
2017-09-18T22:48:02.270Z,8.20
2017-09-18T22:50:29.910Z,8.13
2017-09-18T22:52:57.496Z,8.13
2017-09-18T22:55:25.224Z,8.10
2017-09-18T22:57:52.955Z,8.06
2017-09-18T23:00:20.669Z,8.03
2017-09-18T23:02:48.345Z,8.00
2017-09-18T23:05:16.100Z,8.01
2017-09-18T23:07:43.805Z,8.03
2017-09-18T23:10:11.544Z,8.05
2017-09-18T23:12:39.236Z,8.03
2017-09-18T23:15:06.993Z,8.03
2017-09-18T23:17:34.692Z,7.99
2017-09-18T23:20:02.426Z,7.91
2017-09-18T23:22:30.102Z,7.89
2017-09-18T23:24:57.750Z,7.83
2017-09-18T23:27:25.359Z,7.80
2017-09-18T23:29:53.081Z,7.78
2017-09-18T23:32:20.761Z,7.75
2017-09-18T23:34:48.508Z,7.77
2017-09-18T23:37:16.224Z,7.78
2017-09-18T23:39:43.968Z,7.78
2017-09-18T23:42:11.661Z,7.80
2017-09-18T23:44:39.411Z,7.81
2017-09-18T23:47:07.084Z,7.79
2017-09-18T23:49:34.850Z,7.76
2017-09-18T23:52:02.534Z,7.75
2017-09-18T23:54:30.260Z,7.74
2017-09-18T23:56:57.958Z,7.76
2017-09-18T23:59:25.679Z,7.73
